Time;durP1;ratioP1;P1;durP2;ratioP2;P2;SDS_P1;SDS_P2;PMS_P1;PMS_P2;Temp;Humidity;BMP_temperature;BMP_pressure;BME280_temperature;BME280_humidity;BME280_pressure;Samples;Min_cycle;Max_cycle;Signal;HPM_P1;HPM_P2
2022/06/25 00:00:33;;;;;;;;;;;18.80;99.90;;;;;;5035234;28;20035;-72
2022/06/25 00:02:59;;;;;;;;;;;18.80;99.90;;;;;;5053108;28;19948;-72
2022/06/25 00:05:27;;;;;;;;;;;18.80;99.90;;;;;;5053061;28;20255;-72
2022/06/25 00:07:53;;;;;;;;;;;18.80;99.90;;;;;;5035099;28;20384;-72
2022/06/25 00:10:18;;;;;;;;;;;18.80;99.90;;;;;;5052866;28;19917;-72
2022/06/25 00:12:44;;;;;;;;;;;18.70;99.90;;;;;;5053089;28;19962;-72
2022/06/25 00:15:10;;;;;;;;;;;18.80;99.90;;;;;;5052963;28;19909;-72
2022/06/25 00:17:35;;;;;;;;;;;18.70;99.90;;;;;;5051781;28;19952;-72
2022/06/25 00:20:01;;;;;;;;;;;18.70;99.90;;;;;;5052837;28;19917;-72
2022/06/25 00:22:26;;;;;;;;;;;18.80;99.90;;;;;;5052852;28;19913;-72
2022/06/25 00:24:52;;;;;;;;;;;18.70;99.90;;;;;;5052693;28;19932;-72
2022/06/25 00:27:18;;;;;;;;;;;18.70;99.90;;;;;;5053171;28;19917;-72
2022/06/25 00:29:43;;;;;;;;;;;18.70;99.90;;;;;;5052580;28;19916;-71
2022/06/25 00:32:09;;;;;;;;;;;18.70;99.90;;;;;;5053029;28;19924;-72
2022/06/25 00:34:35;;;;;;;;;;;18.70;99.90;;;;;;5052612;28;20382;-72
2022/06/25 00:37:01;;;;;;;;;;;18.70;99.90;;;;;;5052324;28;19967;-72
2022/06/25 00:39:26;;;;;;;;;;;18.60;99.90;;;;;;5052354;28;19960;-72
2022/06/25 00:41:52;;;;;;;;;;;18.60;99.90;;;;;;5052960;28;19924;-72
2022/06/25 00:44:17;;;;;;;;;;;18.60;99.90;;;;;;5052384;28;20022;-72
2022/06/25 00:46:47;;;;;;;;;;;18.60;99.90;;;;;;5052338;28;19920;-72
2022/06/25 00:49:12;;;;;;;;;;;18.60;99.90;;;;;;5052560;28;20384;-72
2022/06/25 00:51:39;;;;;;;;;;;18.50;99.90;;;;;;5034615;28;20005;-72
2022/06/25 00:54:07;;;;;;;;;;;18.50;99.90;;;;;;5052227;28;20388;-72
2022/06/25 00:56:35;;;;;;;;;;;18.50;99.90;;;;;;5052488;28;20019;-72
2022/06/25 00:59:02;;;;;;;;;;;18.50;99.90;;;;;;5034011;28;19921;-72
2022/06/25 01:01:29;;;;;;;;;;;18.50;99.90;;;;;;5034404;28;20031;-72
2022/06/25 01:03:54;;;;;;;;;;;18.50;99.90;;;;;;5052106;28;19913;-72
2022/06/25 01:06:20;;;;;;;;;;;18.50;99.90;;;;;;5034084;28;20095;-72
2022/06/25 01:08:45;;;;;;;;;;;18.50;99.90;;;;;;5034099;28;19959;-72
2022/06/25 01:11:11;;;;;;;;;;;18.40;99.90;;;;;;5051968;28;19928;-72
2022/06/25 01:13:36;;;;;;;;;;;18.40;99.90;;;;;;5052010;28;19958;-72
2022/06/25 01:16:03;;;;;;;;;;;18.40;99.90;;;;;;5051844;28;19966;-72
2022/06/25 01:18:29;;;;;;;;;;;18.40;99.90;;;;;;5033987;28;19919;-72
2022/06/25 01:20:54;;;;;;;;;;;18.40;99.90;;;;;;5051840;28;19917;-72
2022/06/25 01:23:20;;;;;;;;;;;18.40;99.90;;;;;;5052188;28;19916;-72
2022/06/25 01:25:45;;;;;;;;;;;18.40;99.90;;;;;;5051766;28;19981;-72
2022/06/25 01:28:11;;;;;;;;;;;18.50;99.90;;;;;;5051270;28;20361;-71
2022/06/25 01:30:36;;;;;;;;;;;18.50;99.90;;;;;;5051622;28;19924;-72
2022/06/25 01:33:02;;;;;;;;;;;18.40;99.90;;;;;;5035083;28;19913;-73
2022/06/25 01:35:27;;;;;;;;;;;18.30;99.90;;;;;;5044637;28;19921;-71
2022/06/25 01:37:53;;;;;;;;;;;18.30;99.90;;;;;;5071345;28;19912;-71
2022/06/25 01:40:18;;;;;;;;;;;18.30;99.90;;;;;;5071182;28;19935;-71
2022/06/25 01:42:59;;;;;;;;;;;18.20;99.90;;;;;;5071325;28;20034;-71
2022/06/25 01:45:27;;;;;;;;;;;18.20;99.90;;;;;;5071211;28;20378;-71
2022/06/25 01:47:53;;;;;;;;;;;18.10;99.90;;;;;;5071424;28;20321;-71
2022/06/25 01:50:19;;;;;;;;;;;18.10;99.90;;;;;;5071115;28;19916;-74
2022/06/25 01:52:46;;;;;;;;;;;18.00;99.90;;;;;;5071197;28;19909;-71
2022/06/25 01:55:12;;;;;;;;;;;18.10;99.90;;;;;;5070876;28;19917;-71
2022/06/25 01:57:38;;;;;;;;;;;18.10;99.90;;;;;;5071057;28;20427;-71
2022/06/25 02:00:05;;;;;;;;;;;18.10;99.90;;;;;;5070786;28;19912;-72
2022/06/25 02:02:30;;;;;;;;;;;18.10;99.90;;;;;;5070952;28;19909;-72
2022/06/25 02:04:56;;;;;;;;;;;18.10;99.90;;;;;;5070682;28;20352;-72
2022/06/25 02:07:21;;;;;;;;;;;18.00;99.90;;;;;;5052941;28;19912;-72
2022/06/25 02:09:47;;;;;;;;;;;18.00;99.90;;;;;;5070960;28;19908;-72
2022/06/25 02:12:12;;;;;;;;;;;18.00;99.90;;;;;;5071130;28;20364;-72
2022/06/25 02:14:37;;;;;;;;;;;18.00;99.90;;;;;;5070880;28;20011;-72
2022/06/25 02:17:03;;;;;;;;;;;18.00;99.90;;;;;;5071070;28;19920;-71
2022/06/25 02:19:29;;;;;;;;;;;18.00;99.90;;;;;;5070768;28;19912;-71
2022/06/25 02:21:54;;;;;;;;;;;18.00;99.90;;;;;;5070990;28;19956;-72
2022/06/25 02:24:20;;;;;;;;;;;17.90;99.90;;;;;;5070599;28;19913;-72
2022/06/25 02:26:45;;;;;;;;;;;17.90;99.90;;;;;;5070817;28;19962;-72
2022/06/25 02:29:11;;;;;;;;;;;17.90;99.90;;;;;;5070478;28;19935;-72
2022/06/25 02:31:36;;;;;;;;;;;17.90;99.90;;;;;;5070333;28;20283;-72
2022/06/25 02:34:02;;;;;;;;;;;17.90;99.90;;;;;;5052448;28;19948;-72
2022/06/25 02:36:27;;;;;;;;;;;17.90;99.90;;;;;;5070137;28;19947;-72
2022/06/25 02:38:53;;;;;;;;;;;17.90;99.90;;;;;;5070465;28;19979;-72
2022/06/25 02:41:18;;;;;;;;;;;17.90;99.90;;;;;;5051836;28;19916;-72
2022/06/25 02:43:44;;;;;;;;;;;17.90;99.90;;;;;;5070528;28;19913;-72
2022/06/25 02:46:09;;;;;;;;;;;17.90;99.90;;;;;;5070615;28;19917;-72
2022/06/25 02:48:35;;;;;;;;;;;17.80;99.90;;;;;;5070380;28;20383;-72
2022/06/25 02:51:00;;;;;;;;;;;17.80;99.90;;;;;;5070427;28;19927;-73
2022/06/25 02:53:26;;;;;;;;;;;17.80;99.90;;;;;;5052323;28;19909;-72
2022/06/25 02:58:55;;;;;;;;;;;17.80;99.90;;;;;;5070464;28;19993;-72
2022/06/25 03:01:22;;;;;;;;;;;17.80;99.90;;;;;;5070557;28;19920;-72
2022/06/25 03:03:47;;;;;;;;;;;17.80;99.90;;;;;;5070171;28;20360;-72
2022/06/25 03:06:13;;;;;;;;;;;17.80;99.90;;;;;;5070427;28;19948;-72
2022/06/25 03:08:39;;;;;;;;;;;17.80;99.90;;;;;;5052277;28;19909;-72
2022/06/25 03:11:05;;;;;;;;;;;17.90;99.90;;;;;;5070379;28;19924;-72
2022/06/25 03:13:34;;;;;;;;;;;17.90;99.90;;;;;;5070524;28;19913;-72
2022/06/25 03:16:00;;;;;;;;;;;17.80;99.90;;;;;;5070567;28;20201;-72
2022/06/25 03:18:25;;;;;;;;;;;17.90;99.90;;;;;;5070077;28;19917;-72
2022/06/25 03:20:51;;;;;;;;;;;17.90;99.90;;;;;;5070261;28;19927;-72
2022/06/25 03:23:16;;;;;;;;;;;18.00;99.90;;;;;;5069993;28;20330;-72
2022/06/25 03:25:42;;;;;;;;;;;18.00;99.90;;;;;;5069937;28;20334;-72
2022/06/25 03:28:07;;;;;;;;;;;18.00;99.90;;;;;;5069832;28;19908;-71
2022/06/25 03:30:33;;;;;;;;;;;18.00;99.90;;;;;;5070102;28;19962;-71
2022/06/25 03:32:59;;;;;;;;;;;18.00;99.90;;;;;;5069763;28;19908;-72
2022/06/25 03:35:24;;;;;;;;;;;18.10;99.90;;;;;;5069695;28;20500;-71
2022/06/25 03:37:50;;;;;;;;;;;18.10;99.90;;;;;;5069927;28;19956;-72
2022/06/25 03:40:16;;;;;;;;;;;17.80;99.90;;;;;;5052213;28;19962;-72
2022/06/25 03:42:42;;;;;;;;;;;18.20;99.90;;;;;;5069748;28;19909;-72
2022/06/25 03:45:08;;;;;;;;;;;18.30;99.90;;;;;;5069793;28;19977;-72
2022/06/25 03:47:34;;;;;;;;;;;18.30;99.90;;;;;;5069809;28;19914;-72
2022/06/25 03:49:59;;;;;;;;;;;18.40;99.90;;;;;;5051665;28;19943;-72
2022/06/25 03:52:25;;;;;;;;;;;18.40;99.90;;;;;;5072090;28;19913;-73
2022/06/25 03:54:51;;;;;;;;;;;18.40;99.90;;;;;;5073587;28;20396;-72
2022/06/25 03:57:16;;;;;;;;;;;18.50;99.90;;;;;;5073240;28;19916;-73
2022/06/25 03:59:42;;;;;;;;;;;18.50;99.90;;;;;;5073443;28;20310;-72
2022/06/25 04:02:07;;;;;;;;;;;18.50;99.90;;;;;;5073629;28;20325;-72
2022/06/25 04:04:33;;;;;;;;;;;18.50;99.90;;;;;;5073422;28;19909;-71
2022/06/25 04:06:58;;;;;;;;;;;18.60;99.90;;;;;;5055370;28;20136;-72
2022/06/25 04:09:24;;;;;;;;;;;18.70;99.90;;;;;;5073298;28;20272;-72
2022/06/25 04:11:49;;;;;;;;;;;18.50;99.90;;;;;;5073447;28;19920;-72
2022/06/25 04:14:14;;;;;;;;;;;18.70;99.90;;;;;;5073155;28;19912;-72
2022/06/25 04:16:40;;;;;;;;;;;18.90;99.90;;;;;;5073244;28;19921;-72
2022/06/25 04:19:05;;;;;;;;;;;18.80;99.90;;;;;;5072810;28;20037;-72
2022/06/25 04:21:32;;;;;;;;;;;18.80;99.90;;;;;;5073208;28;20318;-72
2022/06/25 04:23:57;;;;;;;;;;;18.80;99.90;;;;;;5072917;28;19908;-72
2022/06/25 04:26:23;;;;;;;;;;;18.90;99.90;;;;;;5073163;28;19916;-72
2022/06/25 04:29:04;;;;;;;;;;;18.90;99.90;;;;;;5072842;28;19944;-72
2022/06/25 04:31:32;;;;;;;;;;;19.00;99.90;;;;;;5073232;28;20394;-72
2022/06/25 04:33:58;;;;;;;;;;;19.00;99.90;;;;;;5072767;28;19909;-72
2022/06/25 04:36:24;;;;;;;;;;;19.10;99.90;;;;;;5054631;28;19936;-72
2022/06/25 04:38:49;;;;;;;;;;;19.10;99.90;;;;;;5073057;28;19916;-71
2022/06/25 04:41:15;;;;;;;;;;;19.20;99.90;;;;;;5073030;28;19920;-72
2022/06/25 04:43:40;;;;;;;;;;;19.20;99.90;;;;;;5072830;28;20043;-71
2022/06/25 04:46:06;;;;;;;;;;;19.30;99.90;;;;;;5072850;28;19923;-71
2022/06/25 04:48:31;;;;;;;;;;;19.40;99.90;;;;;;5072420;28;20398;-72
2022/06/25 04:50:57;;;;;;;;;;;19.50;99.90;;;;;;5072580;28;19916;-72
2022/06/25 04:53:22;;;;;;;;;;;19.50;99.90;;;;;;5054305;28;20369;-72
2022/06/25 04:55:48;;;;;;;;;;;19.60;99.90;;;;;;5072656;28;19917;-72
2022/06/25 04:58:14;;;;;;;;;;;19.70;99.90;;;;;;5072216;28;19912;-72
2022/06/25 05:00:39;;;;;;;;;;;19.80;99.90;;;;;;5072703;28;20368;-72
2022/06/25 05:03:05;;;;;;;;;;;19.80;99.90;;;;;;5071935;28;19908;-72
2022/06/25 05:05:30;;;;;;;;;;;19.90;99.90;;;;;;5054246;28;20006;-72
2022/06/25 05:07:56;;;;;;;;;;;20.00;99.90;;;;;;5072125;28;20233;-72
2022/06/25 05:10:21;;;;;;;;;;;20.00;99.90;;;;;;5054032;28;19928;-72
2022/06/25 05:15:31;;;;;;;;;;;20.30;99.90;;;;;;5072169;28;19923;-72
2022/06/25 05:17:56;;;;;;;;;;;20.30;99.90;;;;;;5071754;28;19912;-72
2022/06/25 05:20:22;;;;;;;;;;;20.40;99.90;;;;;;5072227;28;19920;-72
2022/06/25 05:22:48;;;;;;;;;;;20.40;99.90;;;;;;5072035;28;19908;-72
2022/06/25 05:25:13;;;;;;;;;;;20.50;99.90;;;;;;5071857;28;20424;-72
2022/06/25 05:27:39;;;;;;;;;;;20.50;99.90;;;;;;5071897;28;19916;-72
2022/06/25 05:30:05;;;;;;;;;;;20.60;99.90;;;;;;5071600;28;19958;-72
2022/06/25 05:32:31;;;;;;;;;;;20.70;99.90;;;;;;5071617;28;19908;-72
2022/06/25 05:34:57;;;;;;;;;;;20.70;99.90;;;;;;5071316;28;19962;-72
2022/06/25 05:37:23;;;;;;;;;;;20.80;99.90;;;;;;5071345;28;19924;-72
2022/06/25 05:39:49;;;;;;;;;;;20.90;99.90;;;;;;5071415;28;19908;-72
2022/06/25 05:42:14;;;;;;;;;;;20.90;99.90;;;;;;5053535;28;20421;-72
2022/06/25 05:44:40;;;;;;;;;;;21.00;99.90;;;;;;5071343;28;20334;-72
2022/06/25 05:47:05;;;;;;;;;;;21.10;99.90;;;;;;5071800;28;20386;-72
2022/06/25 05:49:31;;;;;;;;;;;21.20;99.90;;;;;;5071684;28;20318;-72
2022/06/25 05:51:56;;;;;;;;;;;21.30;99.90;;;;;;5071732;28;19917;-72
2022/06/25 05:54:22;;;;;;;;;;;21.50;99.90;;;;;;5071098;28;19947;-71
2022/06/25 05:56:47;;;;;;;;;;;21.50;99.90;;;;;;5071509;28;19921;-72
2022/06/25 05:59:13;;;;;;;;;;;21.60;99.90;;;;;;5070946;28;19961;-72
2022/06/25 06:01:38;;;;;;;;;;;21.80;99.90;;;;;;5071326;28;20015;-72
2022/06/25 06:04:05;;;;;;;;;;;21.90;99.90;;;;;;5070924;28;20356;-72
2022/06/25 06:06:30;;;;;;;;;;;22.00;99.90;;;;;;5052920;28;19917;-72
2022/06/25 06:08:56;;;;;;;;;;;22.10;99.90;;;;;;5070785;28;19935;-72
2022/06/25 06:11:21;;;;;;;;;;;22.20;99.90;;;;;;5071187;28;19920;-74
2022/06/25 06:13:47;;;;;;;;;;;22.30;99.90;;;;;;5070803;28;19916;-73
2022/06/25 06:16:12;;;;;;;;;;;22.40;99.90;;;;;;5070247;28;19916;-71
2022/06/25 06:18:38;;;;;;;;;;;22.50;99.90;;;;;;5070915;28;19912;-73
2022/06/25 06:21:03;;;;;;;;;;;22.60;99.90;;;;;;5070735;28;19924;-71
2022/06/25 06:23:29;;;;;;;;;;;22.60;99.90;;;;;;5070783;28;20042;-71
2022/06/25 06:25:54;;;;;;;;;;;22.70;99.90;;;;;;5070759;28;20362;-71
2022/06/25 06:28:19;;;;;;;;;;;22.80;99.90;;;;;;5070501;28;20002;-71
2022/06/25 06:30:46;;;;;;;;;;;22.90;99.90;;;;;;5070631;28;19916;-71
2022/06/25 06:33:12;;;;;;;;;;;22.90;99.90;;;;;;5052483;28;19912;-71
2022/06/25 06:35:37;;;;;;;;;;;23.00;99.90;;;;;;5070376;28;19943;-73
2022/06/25 06:38:03;;;;;;;;;;;23.00;99.90;;;;;;5070677;28;20376;-73
2022/06/25 06:40:28;;;;;;;;;;;23.10;99.90;;;;;;5070892;28;19981;-73
2022/06/25 06:42:55;;;;;;;;;;;23.10;99.90;;;;;;5052744;28;19915;-73
2022/06/25 06:45:21;;;;;;;;;;;23.10;99.90;;;;;;5070568;28;20331;-71
2022/06/25 06:47:47;;;;;;;;;;;23.20;99.90;;;;;;5070516;28;19917;-72
2022/06/25 06:50:12;;;;;;;;;;;23.10;99.90;;;;;;5070724;28;19954;-70
2022/06/25 06:52:38;;;;;;;;;;;23.10;99.90;;;;;;5070501;28;19917;-73
2022/06/25 06:55:04;;;;;;;;;;;23.10;99.90;;;;;;5070492;28;19908;-73
2022/06/25 06:57:30;;;;;;;;;;;23.20;99.90;;;;;;5070429;28;19931;-72
2022/06/25 06:59:58;;;;;;;;;;;23.40;99.90;;;;;;5070210;28;19909;-73
2022/06/25 07:02:25;;;;;;;;;;;23.50;99.90;;;;;;5070279;28;19908;-73
2022/06/25 07:04:52;;;;;;;;;;;23.70;99.90;;;;;;5070242;28;19908;-73
2022/06/25 07:07:17;;;;;;;;;;;23.90;99.90;;;;;;5070687;28;19918;-73
2022/06/25 07:09:43;;;;;;;;;;;23.90;99.90;;;;;;5070579;28;20007;-73
2022/06/25 07:12:08;;;;;;;;;;;23.70;99.90;;;;;;5070722;28;20271;-72
2022/06/25 07:14:34;;;;;;;;;;;23.70;99.90;;;;;;5070447;28;19916;-73
2022/06/25 07:17:00;;;;;;;;;;;23.80;99.90;;;;;;5070640;28;19990;-73
2022/06/25 07:19:25;;;;;;;;;;;24.00;99.90;;;;;;5052142;28;20324;-73
2022/06/25 07:21:52;;;;;;;;;;;24.30;99.80;;;;;;5051990;28;19917;-73
2022/06/25 07:24:17;;;;;;;;;;;24.50;99.10;;;;;;5051864;28;19995;-73
2022/06/25 07:26:43;;;;;;;;;;;24.40;98.90;;;;;;5071466;28;20283;-73
2022/06/25 07:29:08;;;;;;;;;;;24.20;98.70;;;;;;5074648;28;19909;-72
2022/06/25 07:31:34;;;;;;;;;;;24.00;98.50;;;;;;5055753;28;19920;-72
2022/06/25 07:34:00;;;;;;;;;;;24.00;98.90;;;;;;5056092;28;19935;-73
2022/06/25 07:36:25;;;;;;;;;;;23.90;98.90;;;;;;5073343;28;20384;-71
2022/06/25 07:38:52;;;;;;;;;;;24.00;98.40;;;;;;5055606;28;19916;-72
2022/06/25 07:41:18;;;;;;;;;;;24.00;98.20;;;;;;5073939;28;19923;-72
2022/06/25 07:43:43;;;;;;;;;;;24.30;98.20;;;;;;5073997;28;19913;-73
2022/06/25 07:46:09;;;;;;;;;;;24.50;98.20;;;;;;5073666;28;19917;-72
2022/06/25 07:48:35;;;;;;;;;;;24.90;97.00;;;;;;5073552;28;19916;-73
2022/06/25 07:53:45;;;;;;;;;;;25.70;96.40;;;;;;5073532;28;19962;-73
2022/06/25 07:56:10;;;;;;;;;;;25.90;95.90;;;;;;5073499;28;19964;-72
2022/06/25 07:58:36;;;;;;;;;;;25.60;95.70;;;;;;5073302;28;20337;-72
2022/06/25 08:01:01;;;;;;;;;;;25.40;95.70;;;;;;5073169;28;20379;-72
2022/06/25 08:03:27;;;;;;;;;;;25.50;95.50;;;;;;5073122;28;20019;-72
2022/06/25 08:05:53;;;;;;;;;;;25.30;94.80;;;;;;5073359;28;20011;-72
2022/06/25 08:08:18;;;;;;;;;;;25.00;95.10;;;;;;5055341;28;19916;-72
2022/06/25 08:10:44;;;;;;;;;;;24.70;95.40;;;;;;5073478;28;19916;-73
2022/06/25 08:13:09;;;;;;;;;;;24.80;96.50;;;;;;5073447;28;20352;-73
2022/06/25 08:15:35;;;;;;;;;;;25.20;96.10;;;;;;5054984;28;20022;-72
2022/06/25 08:18:01;;;;;;;;;;;25.80;95.30;;;;;;5072963;28;20021;-73
2022/06/25 08:20:26;;;;;;;;;;;26.30;95.20;;;;;;5055030;28;19924;-72
2022/06/25 08:22:52;;;;;;;;;;;26.90;94.70;;;;;;5072869;28;19951;-72
2022/06/25 08:25:17;;;;;;;;;;;27.10;93.60;;;;;;5073229;28;19974;-72
2022/06/25 08:27:50;;;;;;;;;;;26.80;92.80;;;;;;5054993;28;19970;-71
2022/06/25 08:30:18;;;;;;;;;;;26.40;93.60;;;;;;5073307;28;20441;-71
2022/06/25 08:32:45;;;;;;;;;;;26.00;94.30;;;;;;5072735;28;19909;-72
2022/06/25 08:35:10;;;;;;;;;;;25.70;94.70;;;;;;5072406;28;19916;-72
2022/06/25 08:37:37;;;;;;;;;;;25.70;94.90;;;;;;5072016;28;19963;-72
2022/06/25 08:40:03;;;;;;;;;;;25.90;94.90;;;;;;5072193;28;19916;-72
2022/06/25 08:42:28;;;;;;;;;;;26.40;93.90;;;;;;5072725;28;19913;-72
2022/06/25 08:44:53;;;;;;;;;;;26.40;93.40;;;;;;5072354;28;19912;-71
2022/06/25 08:47:19;;;;;;;;;;;26.10;93.60;;;;;;5072965;28;19974;-72
2022/06/25 08:49:45;;;;;;;;;;;25.90;94.30;;;;;;5072350;28;19908;-72
2022/06/25 08:52:11;;;;;;;;;;;26.30;94.20;;;;;;5072771;28;19917;-72
2022/06/25 08:54:37;;;;;;;;;;;26.70;93.90;;;;;;5072195;28;19915;-71
2022/06/25 08:57:03;;;;;;;;;;;27.00;93.20;;;;;;5072369;28;19924;-71
2022/06/25 08:59:29;;;;;;;;;;;26.90;93.00;;;;;;5071851;28;19913;-71
2022/06/25 09:01:55;;;;;;;;;;;26.50;93.20;;;;;;5072356;28;20000;-71
2022/06/25 09:04:20;;;;;;;;;;;26.20;93.90;;;;;;5072158;28;20396;-71
2022/06/25 09:06:46;;;;;;;;;;;26.10;93.80;;;;;;5054429;28;19977;-71
2022/06/25 09:09:15;;;;;;;;;;;26.40;93.60;;;;;;5054271;28;19981;-71
2022/06/25 09:12:08;;;;;;;;;;;26.50;93.50;;;;;;5072500;28;19955;-71
2022/06/25 09:14:35;;;;;;;;;;;26.30;93.40;;;;;;5069561;28;19991;-70
2022/06/25 09:17:04;;;;;;;;;;;26.10;93.60;;;;;;5072340;28;20315;-70
2022/06/25 09:19:32;;;;;;;;;;;26.00;93.70;;;;;;5072061;28;20225;-71
2022/06/25 09:21:58;;;;;;;;;;;25.90;93.70;;;;;;5072003;28;20384;-71
2022/06/25 09:24:42;;;;;;;;;;;25.70;93.80;;;;;;5071600;28;20357;-70
2022/06/25 09:27:08;;;;;;;;;;;25.50;94.20;;;;;;5071641;28;19916;-70
2022/06/25 09:29:37;;;;;;;;;;;25.30;94.50;;;;;;5053572;28;20366;-71
2022/06/25 09:32:03;;;;;;;;;;;25.00;94.90;;;;;;5071800;28;19923;-71
2022/06/25 09:34:32;;;;;;;;;;;25.00;94.80;;;;;;5053388;28;19912;-71
2022/06/25 09:36:58;;;;;;;;;;;24.90;95.30;;;;;;5070996;28;20222;-70
2022/06/25 09:39:38;;;;;;;;;;;25.20;95.00;;;;;;5071163;28;19965;-71
2022/06/25 09:42:04;;;;;;;;;;;25.20;95.10;;;;;;5053541;28;19916;-71
2022/06/25 09:44:30;;;;;;;;;;;25.20;95.20;;;;;;5071217;28;20007;-71
2022/06/25 09:46:56;;;;;;;;;;;25.30;95.20;;;;;;5071692;28;20351;-70
2022/06/25 09:49:23;;;;;;;;;;;25.90;94.70;;;;;;5071715;28;19913;-71
2022/06/25 09:51:57;;;;;;;;;;;26.60;93.00;;;;;;5071570;28;20360;-71
2022/06/25 09:54:22;;;;;;;;;;;26.70;92.60;;;;;;5071243;28;19916;-71
2022/06/25 09:56:48;;;;;;;;;;;26.40;92.70;;;;;;5071180;28;19912;-71
2022/06/25 09:59:14;;;;;;;;;;;26.40;93.10;;;;;;5070803;28;19977;-72
2022/06/25 10:01:40;;;;;;;;;;;26.40;93.00;;;;;;5071203;28;20279;-71
2022/06/25 10:04:06;;;;;;;;;;;26.20;92.90;;;;;;5070586;28;19912;-71
2022/06/25 10:06:35;;;;;;;;;;;25.90;92.90;;;;;;5071013;28;19916;-71
2022/06/25 10:09:03;;;;;;;;;;;25.70;93.20;;;;;;5070826;28;19919;-71
2022/06/25 10:11:30;;;;;;;;;;;26.10;93.10;;;;;;5071191;28;19916;-71
2022/06/25 10:13:56;;;;;;;;;;;26.90;92.30;;;;;;5052694;28;20625;-70
2022/06/25 10:16:23;;;;;;;;;;;27.70;91.40;;;;;;5070995;28;19963;-71
2022/06/25 10:18:49;;;;;;;;;;;28.30;90.90;;;;;;5070617;28;20071;-71
2022/06/25 10:21:15;;;;;;;;;;;28.60;90.30;;;;;;5070583;28;20391;-71
2022/06/25 10:23:41;;;;;;;;;;;28.50;89.50;;;;;;5070330;28;19913;-71
2022/06/25 10:26:07;;;;;;;;;;;28.00;89.90;;;;;;5070747;28;19924;-72
2022/06/25 10:28:35;;;;;;;;;;;27.70;90.20;;;;;;5052242;28;20368;-71
2022/06/25 10:31:04;;;;;;;;;;;27.40;90.70;;;;;;5070777;28;19912;-72
2022/06/25 10:33:35;;;;;;;;;;;27.10;91.00;;;;;;5070427;28;19916;-72
2022/06/25 10:36:04;;;;;;;;;;;26.70;91.20;;;;;;5052404;28;19931;-71
2022/06/25 10:38:30;;;;;;;;;;;26.50;91.70;;;;;;5070355;28;19920;-71
2022/06/25 10:42:58;;;;;;;;;;;26.60;91.90;;;;;;5052550;28;20006;-72
2022/06/25 10:43:56;;;;;;;;;;;26.90;91.20;;;;;;5070410;28;20402;-72
2022/06/25 10:46:29;;;;;;;;;;;26.90;90.80;;;;;;5052645;28;19916;-71
2022/06/25 10:49:02;;;;;;;;;;;26.70;90.80;;;;;;5070740;28;19915;-71
2022/06/25 10:51:29;;;;;;;;;;;26.60;90.10;;;;;;5070551;28;20011;-72
2022/06/25 10:53:55;;;;;;;;;;;26.30;89.30;;;;;;5052562;28;19908;-72
2022/06/25 10:56:21;;;;;;;;;;;26.10;90.10;;;;;;5070415;28;20012;-71
2022/06/25 10:58:47;;;;;;;;;;;26.70;90.00;;;;;;5070168;28;20011;-72
2022/06/25 11:01:19;;;;;;;;;;;27.60;89.70;;;;;;5069701;28;19924;-71
2022/06/25 11:03:45;;;;;;;;;;;28.50;88.70;;;;;;5069806;28;20288;-72
2022/06/25 11:06:16;;;;;;;;;;;29.20;86.70;;;;;;5070562;28;19920;-72
2022/06/25 11:08:42;;;;;;;;;;;29.10;86.70;;;;;;5070313;28;19912;-72
2022/06/25 11:11:07;;;;;;;;;;;28.60;86.00;;;;;;5070072;28;19969;-72
2022/06/25 11:13:33;;;;;;;;;;;28.30;86.70;;;;;;5070029;28;20311;-72
2022/06/25 11:15:58;;;;;;;;;;;28.00;87.70;;;;;;5069937;28;19917;-72
2022/06/25 11:18:24;;;;;;;;;;;28.10;86.20;;;;;;5069577;28;20244;-71
2022/06/25 11:20:51;;;;;;;;;;;28.10;86.20;;;;;;5070189;28;19917;-72
2022/06/25 11:23:17;;;;;;;;;;;28.30;86.00;;;;;;5052277;28;20380;-72
2022/06/25 11:28:49;;;;;;;;;;;28.80;83.10;;;;;;5069651;28;19985;-72
2022/06/25 11:31:22;;;;;;;;;;;28.50;82.90;;;;;;5069885;28;20007;-72
2022/06/25 11:33:49;;;;;;;;;;;28.80;83.20;;;;;;5069878;28;20297;-72
2022/06/25 11:36:15;;;;;;;;;;;29.00;84.10;;;;;;5051660;28;19967;-72
2022/06/25 11:38:41;;;;;;;;;;;29.40;83.90;;;;;;5069922;28;20360;-72
2022/06/25 11:41:07;;;;;;;;;;;29.60;82.70;;;;;;5051900;28;20375;-72
2022/06/25 11:43:35;;;;;;;;;;;29.40;83.20;;;;;;5069987;28;19916;-72
2022/06/25 11:46:01;;;;;;;;;;;29.10;83.20;;;;;;5070219;28;20007;-72
2022/06/25 11:48:28;;;;;;;;;;;28.20;82.00;;;;;;5070078;28;19996;-73
2022/06/25 11:51:03;;;;;;;;;;;28.50;83.40;;;;;;5051749;28;19925;-73
2022/06/25 11:53:28;;;;;;;;;;;28.60;82.90;;;;;;5070015;28;19940;-72
2022/06/25 11:56:01;;;;;;;;;;;28.30;83.20;;;;;;5069738;28;19955;-72
2022/06/25 11:58:28;;;;;;;;;;;28.30;83.50;;;;;;5069712;28;19943;-72
2022/06/25 12:00:57;;;;;;;;;;;28.40;83.10;;;;;;5069905;28;19920;-72
2022/06/25 12:03:23;;;;;;;;;;;28.50;82.40;;;;;;5069719;28;19913;-72
2022/06/25 12:05:49;;;;;;;;;;;28.50;82.00;;;;;;5069513;28;20008;-73
2022/06/25 12:08:15;;;;;;;;;;;28.20;81.60;;;;;;5069785;28;20007;-72
2022/06/25 12:10:42;;;;;;;;;;;27.90;82.80;;;;;;5069546;28;20301;-72
2022/06/25 12:13:08;;;;;;;;;;;28.10;80.90;;;;;;5070092;28;19908;-72
2022/06/25 12:15:34;;;;;;;;;;;28.40;81.70;;;;;;5073369;28;19917;-72
2022/06/25 12:18:03;;;;;;;;;;;28.70;81.20;;;;;;5072961;28;20344;-73
2022/06/25 12:20:29;;;;;;;;;;;29.00;80.70;;;;;;5073157;28;20435;-73
2022/06/25 12:22:56;;;;;;;;;;;29.00;79.50;;;;;;5073052;28;20011;-72
2022/06/25 12:25:24;;;;;;;;;;;29.10;78.30;;;;;;5072961;28;19923;-72
2022/06/25 12:27:50;;;;;;;;;;;29.10;77.60;;;;;;5073204;28;19912;-72
2022/06/25 12:30:26;;;;;;;;;;;29.00;78.20;;;;;;5073083;28;19930;-73
2022/06/25 12:32:53;;;;;;;;;;;28.80;78.10;;;;;;5072829;28;19957;-73
2022/06/25 12:35:19;;;;;;;;;;;28.70;78.00;;;;;;5072619;28;20272;-73
2022/06/25 12:38:01;;;;;;;;;;;28.50;77.20;;;;;;5072622;28;19956;-73
2022/06/25 12:40:27;;;;;;;;;;;28.10;76.60;;;;;;5072682;28;20386;-73
2022/06/25 12:42:53;;;;;;;;;;;28.00;76.30;;;;;;5072718;28;19995;-72
2022/06/25 12:45:19;;;;;;;;;;;28.20;77.30;;;;;;5072654;28;20245;-73
2022/06/25 12:47:44;;;;;;;;;;;28.30;75.70;;;;;;5054450;28;20227;-73
2022/06/25 12:50:23;;;;;;;;;;;28.40;76.20;;;;;;5072441;28;20012;-73
2022/06/25 12:52:49;;;;;;;;;;;28.50;76.50;;;;;;5072283;28;19919;-72
2022/06/25 12:55:21;;;;;;;;;;;28.50;77.70;;;;;;5072338;28;19908;-73
2022/06/25 12:57:47;;;;;;;;;;;28.40;78.60;;;;;;5072486;28;19914;-73
2022/06/25 13:00:23;;;;;;;;;;;28.20;79.60;;;;;;5072590;28;20002;-73
2022/06/25 13:02:49;;;;;;;;;;;28.00;80.00;;;;;;5072141;28;19930;-73
2022/06/25 13:05:15;;;;;;;;;;;27.70;80.00;;;;;;5072309;28;19999;-72
2022/06/25 13:07:41;;;;;;;;;;;27.30;80.40;;;;;;5072339;28;20041;-72
2022/06/25 13:10:06;;;;;;;;;;;27.00;81.30;;;;;;5072069;28;19959;-72
2022/06/25 13:12:32;;;;;;;;;;;26.90;81.80;;;;;;5054219;28;19920;-71
2022/06/25 13:15:01;;;;;;;;;;;27.00;82.30;;;;;;5072002;28;20321;-73
2022/06/25 13:17:26;;;;;;;;;;;27.10;82.40;;;;;;5072492;28;20343;-73
2022/06/25 13:19:52;;;;;;;;;;;27.20;80.40;;;;;;5053905;28;19955;-73
2022/06/25 13:22:17;;;;;;;;;;;27.40;81.30;;;;;;5072041;28;20010;-71
2022/06/25 13:24:44;;;;;;;;;;;27.50;81.90;;;;;;5071399;28;19915;-72
2022/06/25 13:27:10;;;;;;;;;;;27.50;80.10;;;;;;5072124;28;19924;-72
2022/06/25 13:29:35;;;;;;;;;;;27.30;81.30;;;;;;5071754;28;19962;-72
2022/06/25 13:32:01;;;;;;;;;;;27.10;81.40;;;;;;5072065;28;19916;-71
2022/06/25 13:34:27;;;;;;;;;;;26.90;81.80;;;;;;5071762;28;19908;-72
2022/06/25 13:36:53;;;;;;;;;;;26.70;80.90;;;;;;5071524;28;19928;-72
2022/06/25 13:39:19;;;;;;;;;;;26.50;81.20;;;;;;5071735;28;20269;-71
2022/06/25 13:41:45;;;;;;;;;;;26.40;81.40;;;;;;5053842;28;20394;-72
2022/06/25 13:44:11;;;;;;;;;;;26.30;81.30;;;;;;5053608;28;19912;-71
2022/06/25 13:46:37;;;;;;;;;;;26.20;81.30;;;;;;5071474;28;20304;-71
2022/06/25 13:49:02;;;;;;;;;;;26.10;81.40;;;;;;5071431;28;19927;-72
2022/06/25 13:51:28;;;;;;;;;;;26.10;81.40;;;;;;5071539;28;19916;-72
2022/06/25 13:53:54;;;;;;;;;;;26.20;81.20;;;;;;5071102;28;19908;-72
2022/06/25 13:56:20;;;;;;;;;;;26.30;80.30;;;;;;5053050;28;19917;-71
2022/06/25 13:58:46;;;;;;;;;;;26.40;81.00;;;;;;5052944;28;19935;-72
2022/06/25 14:01:11;;;;;;;;;;;26.40;82.30;;;;;;5071140;28;20385;-71
2022/06/25 14:03:37;;;;;;;;;;;26.50;81.90;;;;;;5070917;28;19909;-72
2022/06/25 14:06:03;;;;;;;;;;;26.40;81.60;;;;;;5071093;28;20015;-71
2022/06/25 14:08:29;;;;;;;;;;;26.40;81.30;;;;;;5071503;28;19970;-72
2022/06/25 14:10:54;;;;;;;;;;;26.30;81.70;;;;;;5071075;28;20324;-71
2022/06/25 14:13:20;;;;;;;;;;;26.10;81.40;;;;;;5070628;28;19908;-71
2022/06/25 14:15:45;;;;;;;;;;;25.90;82.00;;;;;;5052714;28;19922;-72
2022/06/25 14:18:11;;;;;;;;;;;25.90;81.90;;;;;;5070632;28;19920;-71
2022/06/25 14:20:37;;;;;;;;;;;25.70;81.50;;;;;;5070899;28;19948;-71
2022/06/25 14:23:03;;;;;;;;;;;25.70;81.40;;;;;;5070566;28;19924;-72